Flight Track Log - Related Links

Times and Time Zones

All times are in EDT time to prevent confusion due to time zone crossing. See the N105LU flight status page for this flight to view local times or setup timezone preferences in your user account.

Time Position Orientation Groundspeed Altitude Reporting Facility
EDT Latitude Longitude Course Direction KTS MPH feet Rate Location/Type
Wed 04:48:02 PM 26.3697 -80.1172 290° West 83 96 600  Level Miami Center
Wed 04:49:04 PM 26.3764 -80.1372 290° West 97 112 1,300 484 Climbing Miami Center
Wed 04:50:06 PM 26.4081 -80.1333 North 117 135 1,600 -97 Climbing Miami Center
Wed 04:51:08 PM 26.4328 -80.1003 50° Northeast 127 146 1,100 -290 Descending Miami Center
Wed 04:52:10 PM 26.4481 -80.0675 62° Northeast 123 142 1,000  Descending Miami Center
Wed 04:53:12 PM 26.4778 -80.0453 34° Northeast 127 146 1,100  Climbing Miami Center
Wed 04:54:14 PM 26.5133 -80.0400 North 128 147 1,000 -48 Descending Miami Center
Wed 04:55:16 PM 26.5467 -80.0256 21° North 128 147 1,000  Level Miami Center
Wed 04:56:17 PM 26.5856 -80.0208 North 128 147 1,000  Level Miami Center
Wed 04:57:19 PM 26.6222 -80.0189 North 129 148 1,000  Level Miami Center
Wed 04:58:21 PM 26.6633 -80.0169 North 133 153 1,000  Level Miami Center
Wed 04:59:23 PM 26.7011 -80.0153 North 133 153 1,000  Level Miami Center
Wed 05:00:25 PM 26.7419 -80.0167 358° North 134 154 1,000 242 Level Miami Center
Wed 05:01:27 PM 26.7786 -80.0275 345° North 134 154 1,500 581 Climbing Miami Center
Wed 05:02:29 PM 26.8067 -80.0394 339° North 112 129 2,200 532 Climbing Miami Center
Wed 05:03:31 PM 26.8353 -80.0550 334° Northwest 106 122 2,600 194 Climbing Miami Center
Wed 05:04:33 PM 26.8697 -80.0722 336° Northwest 125 144 2,600 -97 Level Miami Center
Wed 05:05:35 PM 26.9033 -80.0872 338° Northwest 125 144 2,400 -48 Descending Miami Center
Wed 05:06:37 PM 26.9361 -80.1028 337° Northwest 124 143 2,500 48 Climbing Miami Center
Wed 05:07:39 PM 26.9656 -80.1194 333° Northwest 124 143 2,500  Level Miami Center
Wed 05:08:41 PM 26.9978 -80.1381 333° Northwest 124 143 2,500  Level Miami Center
Wed 05:09:43 PM 27.0267 -80.1550 332° Northwest 116 133 2,500  Level Miami Center
Wed 05:10:45 PM 27.0581 -80.1717 335° Northwest 116 133 2,500  Level Miami Center

Login

Don't have an account? Register now (free) for customized features, flight alerts, and more!